createdAt,value
2018-05-31T00:02:10.128Z,89.80
2018-05-31T00:04:37.309Z,89.90
2018-05-31T00:07:03.752Z,89.80
2018-05-31T00:09:30.164Z,89.60
2018-05-31T00:11:56.629Z,89.70
2018-05-31T00:14:23.033Z,89.70
2018-05-31T00:16:49.437Z,89.20
2018-05-31T00:19:16.611Z,89.60
2018-05-31T00:21:43.056Z,89.70
2018-05-31T00:24:09.471Z,90.00
2018-05-31T00:26:36.667Z,90.20
2018-05-31T00:29:03.102Z,90.20
2018-05-31T00:31:29.515Z,90.20
2018-05-31T00:33:55.918Z,90.20
2018-05-31T00:36:23.064Z,90.20
2018-05-31T00:38:50.216Z,90.10
2018-05-31T00:41:17.368Z,90.00
2018-05-31T00:43:44.506Z,89.90
2018-05-31T00:46:11.657Z,89.80
2018-05-31T00:48:38.804Z,89.70
2018-05-31T00:51:05.208Z,89.70
2018-05-31T00:53:31.616Z,89.50
2018-05-31T00:56:10.324Z,90.10
2018-05-31T00:58:36.721Z,90.10
2018-05-31T01:01:03.176Z,90.30
2018-05-31T01:03:30.326Z,90.30
2018-05-31T01:05:56.715Z,90.30
2018-05-31T01:08:23.117Z,90.50
2018-05-31T01:10:49.521Z,90.70
2018-05-31T01:13:16.003Z,90.70
2018-05-31T01:15:42.401Z,90.70
2018-05-31T01:18:08.800Z,90.60
2018-05-31T01:20:35.221Z,90.60
2018-05-31T01:23:01.654Z,90.50
2018-05-31T01:25:28.224Z,90.80
2018-05-31T01:27:56.035Z,90.40
2018-05-31T01:30:22.865Z,90.40
2018-05-31T01:32:49.385Z,90.50
2018-05-31T01:35:16.590Z,90.50
2018-05-31T01:37:44.639Z,90.60
2018-05-31T01:40:11.099Z,90.60
2018-05-31T01:42:39.115Z,90.80
2018-05-31T01:45:05.664Z,90.80
2018-05-31T01:47:32.271Z,91.00
2018-05-31T01:49:58.951Z,91.00
2018-05-31T01:52:26.179Z,91.00
2018-05-31T01:54:52.809Z,90.90
2018-05-31T01:57:19.384Z,90.90
2018-05-31T01:59:46.812Z,90.90
2018-05-31T02:02:13.394Z,90.90
2018-05-31T02:04:40.692Z,90.90
2018-05-31T02:07:07.257Z,90.90
2018-05-31T02:09:33.773Z,90.90
2018-05-31T02:12:00.420Z,91.00
2018-05-31T02:14:26.936Z,91.00
2018-05-31T02:16:53.522Z,91.00
2018-05-31T02:19:21.014Z,90.80
2018-05-31T02:21:48.201Z,90.60
2018-05-31T02:24:15.560Z,90.50
2018-05-31T02:26:41.991Z,90.50
2018-05-31T02:29:09.020Z,90.60
2018-05-31T02:31:35.596Z,90.80
2018-05-31T02:34:02.806Z,90.70
2018-05-31T02:36:31.209Z,90.90
2018-05-31T02:38:59.136Z,90.60
2018-05-31T02:41:26.975Z,90.50
2018-05-31T02:43:53.588Z,90.50
2018-05-31T02:46:20.371Z,90.50
2018-05-31T02:48:48.542Z,90.40
2018-05-31T02:51:15.191Z,90.60
2018-05-31T02:53:42.568Z,90.70
2018-05-31T02:56:10.551Z,90.70
2018-05-31T02:58:38.630Z,90.60
2018-05-31T03:01:06.199Z,90.40
2018-05-31T03:03:33.363Z,90.30
2018-05-31T03:05:59.860Z,90.30
2018-05-31T03:08:26.354Z,90.30
2018-05-31T03:10:53.917Z,90.30
2018-05-31T03:13:20.498Z,90.30
2018-05-31T03:15:47.089Z,90.80
2018-05-31T03:18:14.451Z,90.50
2018-05-31T03:20:42.385Z,90.20
2018-05-31T03:23:09.716Z,90.20
2018-05-31T03:25:37.065Z,89.70
2018-05-31T03:28:03.772Z,90.00
2018-05-31T03:30:31.090Z,90.20
2018-05-31T03:32:59.956Z,90.40
2018-05-31T03:35:28.293Z,90.40
2018-05-31T03:37:56.214Z,90.40
2018-05-31T03:40:23.551Z,90.60
2018-05-31T03:42:50.228Z,90.60
2018-05-31T03:45:17.521Z,90.40
2018-05-31T03:47:45.200Z,90.40
2018-05-31T03:50:11.620Z,90.60
2018-05-31T03:52:38.179Z,90.40
2018-05-31T03:55:05.530Z,90.40
2018-05-31T03:57:35.749Z,90.50
2018-05-31T04:00:03.075Z,90.50
2018-05-31T04:02:29.556Z,90.60
2018-05-31T04:04:56.997Z,90.70
2018-05-31T04:07:23.499Z,90.80
2018-05-31T04:09:50.076Z,90.80
2018-05-31T04:12:16.667Z,90.90
2018-05-31T04:14:43.195Z,90.90
2018-05-31T04:17:10.242Z,90.90
2018-05-31T04:19:37.537Z,91.40
2018-05-31T04:22:04.024Z,91.10
2018-05-31T04:24:31.270Z,91.20
2018-05-31T04:26:57.855Z,91.20
2018-05-31T04:29:25.217Z,91.00
2018-05-31T04:31:53.327Z,91.00
2018-05-31T04:34:22.799Z,91.00
2018-05-31T04:36:49.396Z,90.90
2018-05-31T04:39:16.014Z,91.20
2018-05-31T04:41:43.379Z,91.00
2018-05-31T04:44:11.171Z,91.30
2018-05-31T04:46:38.190Z,91.30
2018-05-31T04:49:05.384Z,91.10
2018-05-31T04:51:34.262Z,91.10
2018-05-31T04:54:02.482Z,91.30
2018-05-31T04:56:28.912Z,91.30
2018-05-31T04:58:56.785Z,91.60
2018-05-31T05:01:23.893Z,91.40
2018-05-31T05:03:51.367Z,91.50
2018-05-31T05:06:17.888Z,91.40
2018-05-31T05:08:44.451Z,91.00
2018-05-31T05:11:11.699Z,91.30
2018-05-31T05:13:38.240Z,91.30
2018-05-31T05:16:06.106Z,90.80
2018-05-31T05:18:33.362Z,90.90
2018-05-31T05:21:00.579Z,91.20
2018-05-31T05:23:27.097Z,90.90
2018-05-31T05:25:54.282Z,90.10
2018-05-31T05:28:20.816Z,90.10
2018-05-31T05:30:47.300Z,90.30
2018-05-31T05:33:14.546Z,85.60
2018-05-31T05:35:40.979Z,85.50
2018-05-31T05:38:08.188Z,82.30
2018-05-31T05:40:34.634Z,82.30
2018-05-31T05:43:01.091Z,80.30
2018-05-31T05:45:28.281Z,79.50
2018-05-31T05:47:54.752Z,79.30
2018-05-31T05:50:21.185Z,78.70
2018-05-31T05:52:47.615Z,78.50
2018-05-31T05:55:14.082Z,78.00
2018-05-31T05:57:41.261Z,77.90
2018-05-31T06:00:07.675Z,77.80
2018-05-31T06:02:34.093Z,76.80
2018-05-31T06:05:02.009Z,75.10
2018-05-31T06:07:28.428Z,75.10
2018-05-31T06:09:54.887Z,75.80
2018-05-31T06:12:22.017Z,74.50
2018-05-31T06:14:48.432Z,74.50
2018-05-31T06:17:15.589Z,74.60
2018-05-31T06:19:42.206Z,74.50
2018-05-31T06:22:08.573Z,75.10
2018-05-31T06:24:35.051Z,74.40
2018-05-31T06:27:01.437Z,73.80
2018-05-31T06:29:27.854Z,75.20
2018-05-31T06:31:54.355Z,74.40
2018-05-31T06:34:20.776Z,74.60
2018-05-31T06:36:47.185Z,74.90
2018-05-31T06:39:13.576Z,75.20
2018-05-31T06:41:39.975Z,76.10
2018-05-31T06:44:06.386Z,76.10
2018-05-31T06:46:32.787Z,76.20
2018-05-31T06:48:59.920Z,76.50
2018-05-31T06:51:26.323Z,76.50
2018-05-31T06:53:52.726Z,75.90
2018-05-31T06:56:19.107Z,76.10
2018-05-31T06:58:46.279Z,74.90
2018-05-31T07:01:13.406Z,74.80
2018-05-31T07:03:39.822Z,74.60
2018-05-31T07:06:06.209Z,74.90
2018-05-31T07:08:32.608Z,74.50
2018-05-31T07:11:00.566Z,74.30
2018-05-31T07:13:26.996Z,74.20
2018-05-31T07:15:53.387Z,76.40
2018-05-31T07:18:19.784Z,75.10
2018-05-31T07:20:46.194Z,74.70
2018-05-31T07:23:12.598Z,75.00
2018-05-31T07:25:38.982Z,76.60
2018-05-31T07:28:05.391Z,76.70
2018-05-31T07:30:31.789Z,76.40
2018-05-31T07:32:58.187Z,76.30
2018-05-31T07:35:24.630Z,76.70
2018-05-31T07:37:51.786Z,76.80
2018-05-31T07:40:18.941Z,74.90
2018-05-31T07:42:46.071Z,74.90
2018-05-31T07:45:12.458Z,74.80
2018-05-31T07:47:38.865Z,75.80
2018-05-31T07:50:05.278Z,75.30
2018-05-31T07:52:32.452Z,75.40
2018-05-31T07:54:58.845Z,75.30
2018-05-31T07:57:26.719Z,73.90
2018-05-31T07:59:53.120Z,74.00
2018-05-31T08:02:19.495Z,74.80
2018-05-31T08:04:46.634Z,74.60
2018-05-31T08:07:13.048Z,74.60
2018-05-31T08:09:40.930Z,72.10
2018-05-31T08:12:07.309Z,72.60
2018-05-31T08:14:33.692Z,71.30
2018-05-31T08:17:00.140Z,73.50
2018-05-31T08:19:27.271Z,73.50
2018-05-31T08:21:55.132Z,73.30
2018-05-31T08:24:21.515Z,73.30
2018-05-31T08:26:47.902Z,71.90
2018-05-31T08:29:14.274Z,71.60
2018-05-31T08:31:40.702Z,72.00
2018-05-31T08:34:07.101Z,71.90
2018-05-31T08:36:33.508Z,70.70
2018-05-31T08:38:59.906Z,72.20
2018-05-31T08:41:26.433Z,73.10
2018-05-31T08:43:53.581Z,71.30
2018-05-31T08:46:20.783Z,71.30
2018-05-31T08:48:47.203Z,71.20
2018-05-31T08:51:13.612Z,71.50
2018-05-31T08:53:40.004Z,71.20
2018-05-31T08:56:06.440Z,71.70
2018-05-31T08:58:33.630Z,73.60
2018-05-31T09:01:00.025Z,73.00
2018-05-31T09:03:27.935Z,72.00
2018-05-31T09:05:54.337Z,71.90
2018-05-31T09:08:21.478Z,73.50
2018-05-31T09:10:47.888Z,73.50
2018-05-31T09:13:14.292Z,72.60
2018-05-31T09:15:40.680Z,73.00
2018-05-31T09:18:07.072Z,71.60
2018-05-31T09:20:33.489Z,72.60
2018-05-31T09:22:59.883Z,72.40
2018-05-31T09:25:27.084Z,72.80
2018-05-31T09:27:53.492Z,72.80
2018-05-31T09:30:19.890Z,71.20
2018-05-31T09:32:47.766Z,72.00
2018-05-31T09:35:14.908Z,72.50
2018-05-31T09:37:42.039Z,72.70
2018-05-31T09:40:08.426Z,72.10
2018-05-31T09:42:34.832Z,71.10
2018-05-31T09:45:01.981Z,72.10
2018-05-31T09:47:29.168Z,69.60
2018-05-31T09:49:55.572Z,69.70
2018-05-31T09:52:22.709Z,70.70
2018-05-31T09:54:50.585Z,71.40
2018-05-31T09:57:17.722Z,70.90
2018-05-31T09:59:45.824Z,69.90
2018-05-31T10:02:12.226Z,69.80
2018-05-31T10:04:38.631Z,69.50
2018-05-31T10:07:05.028Z,68.70
2018-05-31T10:09:32.159Z,70.30
2018-05-31T10:11:58.565Z,70.30
2018-05-31T10:14:24.960Z,69.60
2018-05-31T10:16:51.402Z,70.40
2018-05-31T10:19:18.761Z,69.50
2018-05-31T10:21:45.134Z,68.10
2018-05-31T10:24:11.514Z,66.90
2018-05-31T10:26:37.890Z,66.00
2018-05-31T10:29:04.364Z,67.50
2018-05-31T10:31:30.779Z,66.20
2018-05-31T10:33:57.890Z,67.80
2018-05-31T10:36:24.287Z,67.70
2018-05-31T10:38:50.675Z,67.20
2018-05-31T10:41:17.067Z,66.10
2018-05-31T10:43:43.447Z,65.60
2018-05-31T10:46:10.584Z,65.50
2018-05-31T10:48:37.174Z,65.40
2018-05-31T10:51:03.589Z,66.00
2018-05-31T10:53:29.970Z,66.90
2018-05-31T10:55:56.359Z,66.70
2018-05-31T10:58:22.763Z,66.20
2018-05-31T17:04:10.535Z,65.50
2018-05-31T17:06:37.205Z,65.40
2018-05-31T17:09:04.489Z,66.10
2018-05-31T17:11:31.627Z,65.60
2018-05-31T17:13:58.767Z,65.90
2018-05-31T17:16:25.163Z,65.70
2018-05-31T17:18:51.554Z,65.90
2018-05-31T17:21:18.797Z,65.60
2018-05-31T17:23:45.943Z,65.80
2018-05-31T17:26:13.075Z,66.10
2018-05-31T17:28:39.465Z,66.10
2018-05-31T17:31:05.846Z,65.60
2018-05-31T17:33:32.970Z,65.40
2018-05-31T17:35:59.383Z,65.30
2018-05-31T17:38:25.770Z,65.30
2018-05-31T17:40:52.221Z,65.80
2018-05-31T17:43:19.348Z,66.10
2018-05-31T17:45:45.749Z,66.00
2018-05-31T17:48:12.197Z,65.90
2018-05-31T17:50:40.079Z,66.30
2018-05-31T17:53:06.454Z,66.30
2018-05-31T17:55:32.850Z,66.30
2018-05-31T17:57:59.227Z,66.60
2018-05-31T18:00:25.656Z,66.40
2018-05-31T18:02:52.060Z,66.70
2018-05-31T18:05:19.198Z,67.90
2018-05-31T18:07:46.510Z,68.00
2018-05-31T18:10:12.937Z,68.00
2018-05-31T18:12:39.348Z,69.30
2018-05-31T18:15:05.780Z,69.90
2018-05-31T18:17:32.190Z,70.70
2018-05-31T18:19:58.580Z,70.80
2018-05-31T18:22:25.625Z,71.30
2018-05-31T18:24:52.075Z,71.70
2018-05-31T18:27:20.114Z,72.20
2018-05-31T18:29:46.507Z,72.90
2018-05-31T18:32:13.682Z,72.80
2018-05-31T18:34:40.096Z,72.70
2018-05-31T18:37:07.961Z,72.80
2018-05-31T18:39:35.082Z,72.90
2018-05-31T18:42:01.508Z,72.90
2018-05-31T18:44:29.431Z,72.80
2018-05-31T18:46:55.817Z,72.70
2018-05-31T18:49:22.198Z,73.00
2018-05-31T18:51:49.181Z,72.90
2018-05-31T18:54:15.591Z,73.00
2018-05-31T18:56:41.988Z,73.30
2018-05-31T18:59:09.202Z,73.50
2018-05-31T19:01:35.779Z,73.50
2018-05-31T19:04:02.223Z,73.80
2018-05-31T19:06:28.639Z,74.10
2018-05-31T19:08:55.960Z,74.50
2018-05-31T19:11:22.360Z,74.30
2018-05-31T19:13:54.819Z,74.70
2018-05-31T19:16:21.219Z,75.00
2018-05-31T19:19:06.417Z,75.20
2018-05-31T19:21:33.541Z,75.50
2018-05-31T19:24:07.575Z,75.60
2018-05-31T19:26:34.753Z,75.60
2018-05-31T19:29:01.141Z,75.60
2018-05-31T19:31:27.583Z,75.60
2018-05-31T19:33:53.966Z,76.20
2018-05-31T19:36:26.359Z,75.70
2018-05-31T19:38:52.754Z,76.30
2018-05-31T19:41:20.108Z,76.40
2018-05-31T19:43:52.581Z,76.70
2018-05-31T19:46:18.967Z,76.90
2018-05-31T19:48:45.382Z,77.50
2018-05-31T19:51:11.819Z,77.70
2018-05-31T19:53:43.334Z,77.70
2018-05-31T19:56:09.742Z,77.80
2018-05-31T19:58:42.822Z,77.90
2018-05-31T20:01:15.941Z,77.60
2018-05-31T20:03:42.386Z,77.60
2018-05-31T20:06:08.800Z,77.40
2018-05-31T20:08:40.946Z,77.50
2018-05-31T20:11:08.097Z,77.00
2018-05-31T20:13:35.281Z,77.60
2018-05-31T20:16:01.692Z,76.90
2018-05-31T20:18:28.825Z,76.50
2018-05-31T20:20:56.025Z,77.00
2018-05-31T20:23:22.417Z,76.30
2018-05-31T20:25:49.633Z,75.80
2018-05-31T20:28:16.025Z,75.70
2018-05-31T20:30:42.438Z,75.50
2018-05-31T20:33:09.380Z,75.30
2018-05-31T20:35:36.541Z,75.10
2018-05-31T20:38:03.725Z,75.00
2018-05-31T20:40:30.132Z,75.00
2018-05-31T20:42:56.607Z,75.00
2018-05-31T20:45:23.003Z,75.10
2018-05-31T20:47:49.378Z,75.10
2018-05-31T20:50:15.763Z,75.10
2018-05-31T20:52:42.879Z,75.00
2018-05-31T20:55:09.279Z,74.90
2018-05-31T20:57:35.707Z,75.10
2018-05-31T21:00:02.143Z,75.00
2018-05-31T21:02:28.544Z,75.10
2018-05-31T21:04:55.680Z,77.40
2018-05-31T21:07:22.818Z,77.80
2018-05-31T21:09:49.970Z,78.70
2018-05-31T21:12:17.149Z,78.40
2018-05-31T21:14:43.543Z,78.40
2018-05-31T21:17:11.415Z,79.20
2018-05-31T21:19:38.565Z,79.50
2018-05-31T21:22:05.932Z,80.20
2018-05-31T21:24:33.103Z,80.30
2018-05-31T21:26:59.507Z,80.20
2018-05-31T21:29:26.633Z,81.30
2018-05-31T21:31:53.040Z,80.50
2018-05-31T21:34:19.496Z,81.10
2018-05-31T21:36:45.919Z,81.50
2018-05-31T21:39:12.337Z,81.70
2018-05-31T21:41:38.731Z,82.60
2018-05-31T21:44:06.040Z,83.50
2018-05-31T21:46:32.441Z,83.50
2018-05-31T21:48:58.825Z,83.60
2018-05-31T21:51:25.215Z,83.60
2018-05-31T21:53:51.616Z,84.00
2018-05-31T21:56:18.773Z,84.00
2018-05-31T21:58:45.907Z,84.30
2018-05-31T22:01:13.047Z,84.30
2018-05-31T22:03:39.434Z,84.30
2018-05-31T22:06:05.820Z,84.40
2018-05-31T22:08:32.211Z,84.80
2018-05-31T22:10:58.615Z,84.50
2018-05-31T22:13:25.003Z,84.40
2018-05-31T22:15:51.380Z,84.50
2018-05-31T22:18:17.814Z,84.60
2018-05-31T22:20:44.198Z,84.50
2018-05-31T22:23:10.685Z,84.80
2018-05-31T22:25:37.096Z,84.90
2018-05-31T22:28:04.259Z,85.30
2018-05-31T22:30:31.419Z,85.50
2018-05-31T22:32:57.854Z,85.40
2018-05-31T22:35:24.249Z,85.40
2018-05-31T22:37:51.497Z,85.80
2018-05-31T22:40:17.897Z,85.80
2018-05-31T22:42:45.028Z,86.50
2018-05-31T22:45:11.415Z,87.20
2018-05-31T22:47:37.802Z,86.60
2018-05-31T22:50:04.234Z,86.60
2018-05-31T22:52:30.703Z,86.80
2018-05-31T22:54:57.832Z,86.60
2018-05-31T22:57:24.230Z,86.60
2018-05-31T22:59:50.658Z,86.60
2018-05-31T23:02:17.079Z,86.70
2018-05-31T23:04:44.225Z,86.70
2018-05-31T23:07:11.372Z,86.80
2018-05-31T23:09:38.508Z,86.90
2018-05-31T23:12:04.900Z,86.80
2018-05-31T23:14:31.297Z,87.50
2018-05-31T23:16:58.467Z,87.40
2018-05-31T23:19:24.859Z,87.30
2018-05-31T23:21:52.011Z,86.90
2018-05-31T23:24:19.132Z,87.20
2018-05-31T23:26:45.520Z,86.50
2018-05-31T23:29:11.962Z,86.30
2018-05-31T23:31:38.366Z,86.00
2018-05-31T23:34:05.498Z,86.00
2018-05-31T23:36:33.372Z,86.10
2018-05-31T23:38:59.840Z,86.20
2018-05-31T23:41:26.247Z,86.50
2018-05-31T23:43:53.393Z,86.80
2018-05-31T23:46:20.542Z,87.00
2018-05-31T23:48:46.944Z,87.00
2018-05-31T23:51:13.380Z,87.00
2018-05-31T23:53:39.858Z,87.00
2018-05-31T23:56:06.246Z,86.90
2018-05-31T23:58:32.631Z,86.70
